EDDL/DUS METAR and TAF weather

Enter ICAO airport designator
Station Type Date Time Source
EDDL METAR 2019/10/21 02:50 UTC NOAA

EDDL 210250Z VRB01KT 6000 BKN004 12/12 Q1011 TEMPO 4000 BR


Station Type Date Time Source
EDDL Decoded METAR 2019/10/21 02:50 UTC NOAA

Duesseldorf, Germany (EDDL) 51-18N 006-46E 41M
Oct 20, 2019 - 10:50 PM EDT / 2019.10.21 0250 UTC
Wind: Variable at 1 MPH (1 KT):0
Visibility: 3 mile(s):0
Sky conditions: mostly cloudy
Temperature: 53 F (12 C)
Dew Point: 53 F (12 C)
Relative Humidity: 100%
Pressure (altimeter): 29.85 in. Hg (1011 hPa)
ob: EDDL 210250Z VRB01KT 6000 BKN004 12/12 Q1011 TEMPO 4000 BR
cycle: 3

Station Type Date Time Source
EDDL TAF 2019/10/21 02:58 UTC NOAA

TAF
AMD EDDL 210246Z 2102/2206 02005KT 9999 SCT025
TEMPO 2102/2106 3000 BR BKN004
TEMPO 2106/2107 BKN010
BECMG 2103/2106 17005KT
BECMG 2108/2110 20012KT
TEMPO 2112/2115 21015G25KT
BECMG 2117/2120 19007KT

Example: see airport list